Time;durP1;ratioP1;P1;durP2;ratioP2;P2;SDS_P1;SDS_P2;PMS_P1;PMS_P2;Temp;Humidity;BMP_temperature;BMP_pressure;BME280_temperature;BME280_humidity;BME280_pressure;Samples;Min_cycle;Max_cycle;Signal;HPM_P1;HPM_P2
2021/03/18 00:01:46;;;;;;;1.87;1.20;;;;;;;22.24;41.02;99860.53;1826777;76;20987;-57
2021/03/18 00:04:19;;;;;;;1.50;1.20;;;;;;;22.25;41.00;99860.77;1830449;77;21181;-57
2021/03/18 00:06:45;;;;;;;1.65;1.05;;;;;;;22.24;40.94;99866.89;1800539;78;21126;-59
2021/03/18 00:09:14;;;;;;;1.45;1.10;;;;;;;22.23;40.95;99861.72;1797664;78;21175;-57
2021/03/18 00:11:41;;;;;;;1.32;1.00;;;;;;;22.21;40.96;99872.33;1771689;80;21673;-57
2021/03/18 00:14:11;;;;;;;1.67;1.20;;;;;;;22.18;40.97;99865.54;1764922;80;21593;-57
2021/03/18 00:16:37;;;;;;;1.85;1.17;;;;;;;22.18;40.98;99866.11;1795314;78;21125;-57
2021/03/18 00:19:04;;;;;;;1.47;1.12;;;;;;;22.19;40.98;99866.34;1792850;78;21151;-57
2021/03/18 00:21:31;;;;;;;2.47;1.45;;;;;;;22.17;40.96;99872.80;1796714;78;21198;-57
2021/03/18 00:23:58;;;;;;;1.75;0.98;;;;;;;22.15;40.97;99868.20;1800620;78;21211;-57
2021/03/18 00:26:25;;;;;;;2.05;1.30;;;;;;;22.13;41.00;99871.89;1795477;78;21167;-57
2021/03/18 00:28:52;;;;;;;1.82;1.30;;;;;;;22.12;41.03;99871.66;1801095;78;21177;-57
2021/03/18 00:31:21;;;;;;;2.10;1.32;;;;;;;22.13;41.04;99873.27;1804945;78;21086;-57
2021/03/18 00:33:48;;;;;;;1.87;1.25;;;;;;;22.12;40.99;99871.66;1798112;78;21181;-57
2021/03/18 00:36:14;;;;;;;1.72;1.00;;;;;;;22.11;41.00;99869.46;1796996;78;21410;-57
2021/03/18 00:38:41;;;;;;;1.30;1.00;;;;;;;22.09;41.02;99876.52;1774515;80;21159;-57
2021/03/18 00:41:09;;;;;;;1.60;1.20;;;;;;;22.07;41.03;99867.73;1756578;80;21636;-55
2021/03/18 00:43:36;;;;;;;2.12;1.20;;;;;;;22.07;41.04;99870.51;1775276;78;21247;-57
2021/03/18 00:46:03;;;;;;;1.72;1.35;;;;;;;22.06;41.00;99873.88;1772385;78;21194;-56
2021/03/18 00:48:31;;;;;;;2.22;1.30;;;;;;;22.04;41.00;99864.30;1795590;78;21177;-57
2021/03/18 00:51:00;;;;;;;1.85;1.22;;;;;;;22.01;41.04;99861.66;1778909;79;21137;-57
2021/03/18 00:53:38;;;;;;;1.52;1.10;;;;;;;22.01;41.08;99867.20;1789682;79;21205;-58
2021/03/18 00:56:08;;;;;;;1.42;1.20;;;;;;;22.00;41.07;99856.45;1784081;79;21581;-57
2021/03/18 00:58:35;;;;;;;1.90;1.40;;;;;;;22.00;41.07;99860.61;1780293;79;21221;-58
2021/03/18 01:01:03;;;;;;;1.92;1.32;;;;;;;21.97;41.05;99855.78;1785568;79;21232;-58
2021/03/18 01:03:32;;;;;;;1.55;1.25;;;;;;;21.95;41.09;99856.69;1779996;79;21632;-57
2021/03/18 01:06:17;;;;;;;1.65;1.15;;;;;;;21.93;41.10;99850.71;1788206;79;21137;-57
2021/03/18 01:08:44;;;;;;;1.55;1.15;;;;;;;21.93;41.12;99849.33;1797774;78;21216;-58
2021/03/18 01:11:16;;;;;;;1.82;1.30;;;;;;;21.94;41.11;99853.11;1776944;79;21166;-57
2021/03/18 01:13:45;;;;;;;1.80;1.12;;;;;;;21.92;41.07;99852.67;1776726;79;21179;-57
2021/03/18 01:16:17;;;;;;;2.40;1.50;;;;;;;21.89;41.11;99856.11;1787634;79;21233;-57
2021/03/18 01:18:54;;;;;;;1.47;1.20;;;;;;;21.87;41.13;99855.06;1779695;79;21587;-56
2021/03/18 01:21:25;;;;;;;2.05;1.32;;;;;;;21.86;41.14;99857.60;1762603;80;21201;-57
2021/03/18 01:23:52;;;;;;;3.05;1.12;;;;;;;21.87;41.14;99858.41;1785363;79;21165;-57
2021/03/18 01:26:18;;;;;;;1.72;1.35;;;;;;;21.86;41.12;99856.79;1780978;79;21276;-56
2021/03/18 01:28:45;;;;;;;1.45;1.12;;;;;;;21.86;41.10;99856.79;1784548;79;21198;-56
2021/03/18 01:31:12;;;;;;;1.30;1.05;;;;;;;21.82;41.14;99855.30;1784537;79;21164;-56
2021/03/18 01:33:39;;;;;;;1.75;1.40;;;;;;;21.81;41.16;99854.28;1793409;79;21593;-57
2021/03/18 01:36:07;;;;;;;1.87;1.20;;;;;;;21.80;41.20;99854.86;1781938;79;21224;-57
2021/03/18 01:38:35;;;;;;;1.98;1.32;;;;;;;21.81;41.22;99852.90;1779812;79;22117;-56
2021/03/18 01:41:02;;;;;;;1.75;1.20;;;;;;;21.80;41.20;99854.86;1774749;79;21138;-56
2021/03/18 01:43:28;;;;;;;2.30;1.30;;;;;;;21.79;41.21;99860.16;1753314;80;21536;-57
2021/03/18 01:45:55;;;;;;;1.70;1.17;;;;;;;21.77;41.25;99851.95;1767213;80;21212;-57
2021/03/18 01:48:22;;;;;;;1.72;1.30;;;;;;;21.76;41.27;99859.48;1759552;80;21207;-57
2021/03/18 01:50:48;;;;;;;1.72;1.10;;;;;;;21.77;41.27;99860.26;1766367;80;21199;-57
2021/03/18 01:53:22;;;;;;;2.30;1.55;;;;;;;21.76;41.26;99862.25;1763247;80;21558;-57
2021/03/18 01:55:49;;;;;;;2.37;1.30;;;;;;;21.75;41.27;99855.09;1769025;80;21452;-57
2021/03/18 01:58:16;;;;;;;1.77;1.30;;;;;;;21.74;41.26;99870.08;1766957;80;21537;-59
2021/03/18 02:00:45;;;;;;;2.67;1.50;;;;;;;21.70;41.29;99867.78;1769462;80;21612;-57
2021/03/18 02:03:13;;;;;;;2.20;1.43;;;;;;;21.69;41.31;99867.55;1773019;80;21262;-57
2021/03/18 02:05:42;;;;;;;2.55;1.22;;;;;;;21.69;41.36;99870.31;1762570;80;21165;-57
2021/03/18 02:08:08;;;;;;;2.72;1.60;;;;;;;21.70;41.36;99871.12;1770102;80;21588;-57
2021/03/18 02:10:37;;;;;;;2.08;1.42;;;;;;;21.68;41.37;99871.48;1783970;79;21684;-57
2021/03/18 02:13:06;;;;;;;2.47;1.40;;;;;;;21.68;41.38;99868.72;1787104;80;21555;-58
2021/03/18 02:15:58;;;;;;;2.72;1.40;;;;;;;21.68;41.42;99877.59;1782572;78;21271;-57
2021/03/18 02:18:51;;;;;;;1.90;1.35;;;;;;;21.69;41.44;99875.03;1780630;78;21074;-58
2021/03/18 02:21:58;;;;;;;2.75;1.42;;;;;;;21.75;41.45;99877.23;1777158;78;21121;-58
2021/03/18 02:24:39;;;;;;;2.85;1.75;;;;;;;21.81;41.42;99881.37;1758462;80;21515;-55
2021/03/18 02:27:29;;;;;;;2.67;1.50;;;;;;;21.86;41.34;99878.37;1749740;81;21362;-56
2021/03/18 02:30:40;;;;;;;2.30;1.50;;;;;;;21.88;41.29;99889.92;1745582;80;22090;-56
2021/03/18 02:33:38;;;;;;;2.17;1.40;;;;;;;21.88;41.28;99888.53;1765224;80;21156;-56
2021/03/18 02:36:08;;;;;;;1.65;1.17;;;;;;;21.90;41.28;99895.09;1763025;80;21250;-56
2021/03/18 02:38:44;;;;;;;2.25;1.50;;;;;;;21.95;41.26;99892.69;1764939;79;21051;-56
2021/03/18 02:41:18;;;;;;;2.90;1.87;;;;;;;22.00;41.26;99899.38;1773480;79;21526;-56
2021/03/18 02:43:48;;;;;;;2.90;1.77;;;;;;;22.00;41.20;99901.58;1786708;78;21191;-56
2021/03/18 02:46:14;;;;;;;2.83;1.60;;;;;;;22.01;41.22;99902.39;1782062;78;21476;-56
2021/03/18 02:48:42;;;;;;;2.10;1.45;;;;;;;22.01;41.23;99903.77;1786276;78;21104;-57
2021/03/18 02:51:18;;;;;;;2.45;1.72;;;;;;;22.04;41.27;99906.65;1786502;78;21036;-55
2021/03/18 02:53:45;;;;;;;2.98;1.98;;;;;;;22.07;41.28;99917.02;1787613;78;21163;-55
2021/03/18 02:56:16;;;;;;;2.92;1.67;;;;;;;22.10;41.26;99913.58;1787962;78;22273;-55
2021/03/18 02:58:44;;;;;;;2.92;1.92;;;;;;;22.12;41.23;99921.52;1786565;78;21681;-55
2021/03/18 03:01:10;;;;;;;2.83;1.92;;;;;;;22.12;41.25;99925.67;1788106;79;21062;-55
2021/03/18 03:03:37;;;;;;;2.92;2.10;;;;;;;22.13;41.28;99923.14;1787746;79;21470;-55
2021/03/18 03:06:06;;;;;;;2.55;1.65;;;;;;;22.17;41.30;99925.44;1787402;79;21046;-55
2021/03/18 03:08:33;;;;;;;3.27;2.10;;;;;;;22.22;41.30;99932.13;1785294;80;21213;-56
2021/03/18 03:11:02;;;;;;;3.33;2.30;;;;;;;22.24;41.27;99921.49;1785671;78;21328;-55
2021/03/18 03:13:31;;;;;;;2.83;1.85;;;;;;;22.23;41.27;99919.91;1784217;78;21114;-55
2021/03/18 03:16:01;;;;;;;2.75;2.00;;;;;;;22.22;41.25;99915.52;1777005;79;21150;-55
2021/03/18 03:18:27;;;;;;;2.62;1.70;;;;;;;22.24;41.30;99917.34;1780273;80;21536;-56
2021/03/18 03:20:55;;;;;;;2.98;1.90;;;;;;;22.26;41.32;99915.84;1767787;79;21206;-55
2021/03/18 03:23:24;;;;;;;4.25;2.25;;;;;;;22.31;41.29;99920.34;1777600;79;20960;-56
2021/03/18 03:25:50;;;;;;;3.83;2.30;;;;;;;22.33;41.26;99915.23;1774354;79;21181;-55
2021/03/18 03:28:19;;;;;;;3.55;2.17;;;;;;;22.33;41.25;99911.08;1775770;79;21111;-56
2021/03/18 03:30:45;;;;;;;3.00;2.10;;;;;;;22.33;41.24;99909.70;1777093;79;21277;-55
2021/03/18 03:33:11;;;;;;;3.52;2.15;;;;;;;22.33;41.29;99914.66;1760247;80;21003;-56
2021/03/18 03:35:38;;;;;;;2.70;1.90;;;;;;;22.37;41.30;99925.85;1781072;79;21386;-57
2021/03/18 03:38:05;;;;;;;3.98;2.40;;;;;;;22.40;41.28;99928.52;1747999;80;21456;-56
2021/03/18 03:40:32;;;;;;;3.05;2.02;;;;;;;22.41;41.26;99936.46;1762725;80;21194;-56
2021/03/18 03:42:59;;;;;;;3.67;2.27;;;;;;;22.40;41.25;99936.26;1767294;80;21125;-56
2021/03/18 03:45:26;;;;;;;3.10;2.20;;;;;;;22.40;41.26;99936.26;1767334;79;23527;-56
2021/03/18 03:47:53;;;;;;;3.83;2.65;;;;;;;22.41;41.27;99935.66;1793318;79;20953;-56
2021/03/18 03:50:22;;;;;;;2.90;1.95;;;;;;;22.45;41.29;99936.59;1776055;79;21253;-56
2021/03/18 03:53:15;;;;;;;2.90;2.00;;;;;;;22.49;41.26;99938.89;1784226;79;21520;-55
2021/03/18 03:56:22;;;;;;;3.35;2.02;;;;;;;22.49;41.24;99945.82;1768834;79;21163;-54
2021/03/18 03:59:05;;;;;;;2.92;2.20;;;;;;;22.48;41.20;99951.94;1765693;79;22080;-55
2021/03/18 04:01:38;;;;;;;2.50;2.12;;;;;;;22.46;41.23;99945.11;1768771;79;21125;-55
2021/03/18 04:04:12;;;;;;;3.50;2.15;;;;;;;22.47;41.23;99951.70;1777198;79;21157;-55
2021/03/18 04:06:39;;;;;;;3.05;2.27;;;;;;;22.51;41.22;99955.39;1776519;79;21203;-55
2021/03/18 04:09:07;;;;;;;4.00;2.60;;;;;;;22.53;41.19;99957.82;1779527;79;21165;-57
2021/03/18 04:11:38;;;;;;;5.17;3.00;;;;;;;22.52;41.19;99962.55;1777964;79;21215;-57
2021/03/18 04:14:05;;;;;;;5.60;2.52;;;;;;;22.51;41.20;99962.89;1780952;79;21087;-57
2021/03/18 04:16:32;;;;;;;3.42;2.50;;;;;;;22.52;41.26;99963.13;1778508;79;21154;-56
2021/03/18 04:18:59;;;;;;;4.10;2.60;;;;;;;22.54;41.28;99971.31;1784077;79;21186;-56
2021/03/18 04:21:26;;;;;;;3.87;2.65;;;;;;;22.58;41.26;99972.80;1783652;79;21157;-56
2021/03/18 04:23:53;;;;;;;3.40;2.77;;;;;;;22.58;41.24;99971.41;1785276;79;21203;-55
2021/03/18 04:26:21;;;;;;;4.05;2.58;;;;;;;22.58;41.24;99970.02;1765457;79;21137;-56
2021/03/18 04:28:47;;;;;;;3.60;2.42;;;;;;;22.57;41.24;99972.02;1779360;79;21443;-55
2021/03/18 04:31:14;;;;;;;3.45;2.50;;;;;;;22.58;41.28;99970.84;1785251;79;21392;-55
2021/03/18 04:33:40;;;;;;;3.75;2.35;;;;;;;22.62;41.27;99977.29;1780305;79;21213;-56
2021/03/18 04:36:07;;;;;;;4.12;2.70;;;;;;;22.65;41.27;99975.23;1779782;79;21823;-56
2021/03/18 04:38:33;;;;;;;4.42;2.50;;;;;;;22.68;41.23;99976.48;1777192;79;21085;-56
2021/03/18 04:41:00;;;;;;;4.05;2.80;;;;;;;22.66;41.21;99978.20;1757758;79;21246;-56
2021/03/18 04:43:26;;;;;;;3.85;2.30;;;;;;;22.66;41.21;99977.42;1783836;79;21146;-56
2021/03/18 04:45:55;;;;;;;3.33;2.27;;;;;;;22.65;41.24;99981.34;1771120;79;21051;-56
2021/03/18 04:48:22;;;;;;;3.20;2.30;;;;;;;22.68;41.24;99985.60;1770903;79;22107;-56
2021/03/18 04:50:48;;;;;;;4.37;2.60;;;;;;;22.72;41.21;99987.94;1774000;79;21218;-56
2021/03/18 04:53:18;;;;;;;4.45;2.60;;;;;;;22.74;41.16;99996.69;1769887;79;21233;-56
2021/03/18 04:55:44;;;;;;;3.40;2.58;;;;;;;22.73;41.15;99992.33;1747575;79;21122;-56
2021/03/18 04:58:11;;;;;;;3.37;2.47;;;;;;;22.72;41.15;99995.44;1773015;79;21572;-56
2021/03/18 05:00:38;;;;;;;3.77;2.33;;;;;;;22.73;41.17;99998.45;1778920;79;21209;-56
2021/03/18 05:03:09;;;;;;;3.80;2.65;;;;;;;22.76;41.15;100000.52;1768827;79;21169;-57
2021/03/18 05:05:36;;;;;;;3.83;2.72;;;;;;;22.78;41.15;100000.98;1782132;79;21166;-57
2021/03/18 05:08:04;;;;;;;4.67;3.02;;;;;;;22.80;41.14;99999.22;1775900;79;21209;-58
2021/03/18 05:10:35;;;;;;;5.08;2.85;;;;;;;22.80;41.12;100001.42;1768845;79;21222;-58
2021/03/18 05:13:05;;;;;;;5.12;2.70;;;;;;;22.80;41.14;100004.19;1775776;79;25593;-58
2021/03/18 05:15:32;;;;;;;6.17;3.08;;;;;;;22.83;41.17;100006.26;1772763;79;21221;-59
2021/03/18 05:17:59;;;;;;;5.47;2.62;;;;;;;22.87;41.17;100007.77;1777392;79;21637;-58
2021/03/18 05:20:25;;;;;;;3.67;2.72;;;;;;;22.91;41.13;100008.68;1746025;80;21271;-58
2021/03/18 05:22:52;;;;;;;4.00;2.50;;;;;;;22.95;41.09;100010.98;1776114;79;21137;-58
2021/03/18 05:25:23;;;;;;;5.50;2.75;;;;;;;22.94;41.07;100011.55;1764514;79;29905;-57
2021/03/18 05:27:49;;;;;;;2.80;2.22;;;;;;;22.94;41.06;100013.52;1713176;82;22451;-56
2021/03/18 05:30:17;;;;;;;3.58;2.77;;;;;;;22.92;41.08;100011.08;1712962;83;21134;-58
2021/03/18 05:32:44;;;;;;;3.95;2.67;;;;;;;22.95;41.10;100008.20;1713151;83;21083;-57
2021/03/18 05:35:12;;;;;;;4.00;2.47;;;;;;;22.99;41.10;100021.59;1721268;83;21546;-57
2021/03/18 05:37:40;;;;;;;4.00;2.55;;;;;;;23.02;41.06;100024.47;1717972;83;21162;-57
2021/03/18 05:40:10;;;;;;;3.62;2.62;;;;;;;23.03;41.02;100025.28;1720901;83;21173;-58
2021/03/18 05:42:36;;;;;;;3.33;2.15;;;;;;;23.03;41.02;100034.98;1730968;81;21181;-57
2021/03/18 05:45:05;;;;;;;5.35;2.58;;;;;;;23.02;41.01;100036.95;1760683;80;21205;-58
2021/03/18 05:47:32;;;;;;;5.05;2.60;;;;;;;23.04;41.05;100040.16;1773683;80;21165;-57
2021/03/18 05:49:58;;;;;;;4.08;2.80;;;;;;;23.09;41.05;100046.05;1775341;80;21187;-59
2021/03/18 05:52:30;;;;;;;4.37;2.83;;;;;;;23.12;41.01;100043.39;1776230;79;21272;-57
2021/03/18 05:54:58;;;;;;;3.52;2.45;;;;;;;23.13;40.97;100049.72;1737160;81;21198;-56
2021/03/18 05:57:24;;;;;;;3.25;2.27;;;;;;;23.13;40.94;100057.47;1729734;82;21188;-57
2021/03/18 05:59:51;;;;;;;2.58;2.10;;;;;;;23.12;40.96;100056.46;1707399;82;21138;-57
2021/03/18 06:02:17;;;;;;;3.87;2.58;;;;;;;23.13;40.94;100061.64;1737308;81;21455;-56
2021/03/18 06:04:44;;;;;;;5.08;2.45;;;;;;;23.15;40.99;100064.88;1726988;81;21221;-58
2021/03/18 06:07:12;;;;;;;3.30;2.25;;;;;;;23.19;40.96;100068.56;1725389;81;21174;-58
2021/03/18 06:09:38;;;;;;;3.08;1.92;;;;;;;23.21;40.93;100058.51;1703303;82;21260;-57
2021/03/18 06:12:06;;;;;;;3.42;2.15;;;;;;;23.21;40.95;100065.45;1724781;81;21256;-57
2021/03/18 06:14:32;;;;;;;3.45;2.30;;;;;;;23.19;40.98;100067.17;1728649;81;22045;-57
2021/03/18 06:16:59;;;;;;;4.62;3.17;;;;;;;23.19;40.99;100077.47;1726741;81;21459;-58
2021/03/18 06:19:26;;;;;;;3.62;3.20;;;;;;;23.19;40.93;100079.66;1727330;81;21427;-59
2021/03/18 06:21:57;;;;;;;3.33;3.02;;;;;;;23.20;40.76;100086.02;1734259;81;21647;-59
2021/03/18 06:24:25;;;;;;;3.50;2.95;;;;;;;23.18;40.56;100090.53;1718553;82;21134;-60
2021/03/18 06:26:52;;;;;;;7.20;2.52;;;;;;;23.17;40.42;100093.07;1724143;82;21597;-60
2021/03/18 06:29:40;;;;;;;4.60;2.60;;;;;;;23.14;40.36;100098.52;1706800;82;21288;-59
2021/03/18 06:32:16;;;;;;;2.75;2.25;;;;;;;23.12;40.36;100105.02;1718025;82;21245;-59
2021/03/18 06:34:53;;;;;;;3.72;2.37;;;;;;;23.12;40.38;100111.37;1703717;82;21186;-60
2021/03/18 06:37:45;;;;;;;3.67;2.62;;;;;;;23.15;40.40;100109.86;1711203;83;21646;-59
2021/03/18 06:40:18;;;;;;;4.40;2.12;;;;;;;23.17;40.42;100113.07;1706610;82;20957;-60
2021/03/18 06:42:59;;;;;;;5.58;2.33;;;;;;;23.14;40.42;100111.01;1723124;82;21204;-59
2021/03/18 06:45:41;;;;;;;4.62;2.70;;;;;;;23.12;40.47;100115.54;1718664;81;21588;-58
2021/03/18 06:48:11;;;;;;;4.17;2.20;;;;;;;23.12;40.53;100123.86;1724601;83;21248;-58
2021/03/18 06:50:43;;;;;;;3.70;1.87;;;;;;;23.14;40.56;100124.87;1765518;80;21597;-58
2021/03/18 06:53:24;;;;;;;2.67;2.05;;;;;;;23.14;40.60;100121.53;1763445;79;21559;-58
2021/03/18 06:55:52;;;;;;;3.42;2.58;;;;;;;23.13;40.63;100129.62;1755426;80;21524;-58
2021/03/18 06:58:26;;;;;;;3.60;2.10;;;;;;;23.10;40.70;100130.91;1764650;80;21188;-58
2021/03/18 07:00:57;;;;;;;3.98;2.42;;;;;;;23.09;40.81;100132.05;1764938;80;21289;-58
2021/03/18 07:03:33;;;;;;;3.17;2.00;;;;;;;23.10;40.91;100137.84;1764284;80;21191;-59
2021/03/18 07:06:25;;;;;;;2.75;2.12;;;;;;;23.11;41.00;100143.62;1763302;80;21227;-58
2021/03/18 07:09:09;;;;;;;7.17;2.60;;;;;;;23.12;41.05;100136.92;1702497;82;21298;-59
2021/03/18 07:11:44;;;;;;;3.60;2.10;;;;;;;23.10;41.09;100129.52;1683424;82;21199;-58
2021/03/18 07:14:11;;;;;;;3.87;2.37;;;;;;;23.07;41.16;100136.59;1701862;82;21264;-59
2021/03/18 07:16:46;;;;;;;3.67;2.30;;;;;;;23.07;41.20;100142.71;1703531;82;21224;-58
2021/03/18 07:19:26;;;;;;;3.95;2.47;;;;;;;23.08;41.26;100140.98;1702604;82;22385;-59
2021/03/18 07:21:53;;;;;;;3.62;2.35;;;;;;;23.11;41.28;100145.02;1702645;82;27296;-58
2021/03/18 07:24:24;;;;;;;7.60;2.20;;;;;;;23.10;41.26;100148.94;1703945;82;21853;-59
2021/03/18 07:26:52;;;;;;;4.17;2.60;;;;;;;23.08;41.26;100154.05;1704048;82;21492;-59
2021/03/18 07:29:21;;;;;;;3.87;2.40;;;;;;;23.05;41.33;100156.11;1702897;82;21164;-58
2021/03/18 07:31:49;;;;;;;5.62;2.20;;;;;;;23.03;41.38;100159.83;1701935;82;21673;-58
2021/03/18 07:34:16;;;;;;;2.58;2.00;;;;;;;23.03;41.41;100159.26;1702582;82;21616;-58
2021/03/18 07:36:42;;;;;;;4.20;2.50;;;;;;;23.05;41.41;100158.31;1703256;82;21564;-58
2021/03/18 07:39:09;;;;;;;4.10;2.30;;;;;;;23.05;41.44;100160.27;1705303;82;21268;-59
2021/03/18 07:41:36;;;;;;;3.55;2.47;;;;;;;23.02;41.42;100156.25;1702925;82;21209;-58
2021/03/18 07:44:04;;;;;;;3.50;2.12;;;;;;;22.99;41.50;100156.14;1702842;82;21202;-58
2021/03/18 07:46:31;;;;;;;4.85;2.90;;;;;;;22.98;41.55;100164.23;1707587;82;21246;-58
2021/03/18 07:49:23;;;;;;;3.47;2.60;;;;;;;22.99;41.61;100161.69;1702394;82;21244;-59
2021/03/18 07:51:52;;;;;;;3.90;2.55;;;;;;;22.98;41.63;100162.27;1629456;86;21327;-58
2021/03/18 07:54:20;;;;;;;3.55;2.30;;;;;;;22.97;41.63;100168.96;1599846;88;21271;-58
2021/03/18 07:56:53;;;;;;;4.72;2.25;;;;;;;22.94;41.65;100168.28;1601250;88;21239;-58
2021/03/18 07:59:33;;;;;;;4.00;2.50;;;;;;;22.90;41.68;100170.14;1600125;88;21643;-58
2021/03/18 08:02:17;;;;;;;4.47;2.92;;;;;;;22.89;41.75;100175.45;1604183;88;21657;-58
2021/03/18 08:04:51;;;;;;;3.85;2.52;;;;;;;22.89;41.80;100171.86;1575888;89;21275;-58
2021/03/18 08:07:46;;;;;;;3.52;2.62;;;;;;;22.89;41.79;100180.18;1601335;88;21175;-58
2021/03/18 08:10:23;;;;;;;3.17;2.42;;;;;;;22.88;41.81;100184.11;1601520;88;21666;-59
2021/03/18 08:13:14;;;;;;;5.50;2.33;;;;;;;22.84;41.81;100181.22;1602134;88;21211;-59
2021/03/18 08:15:46;;;;;;;3.55;2.20;;;;;;;22.82;41.84;100185.52;1660113;84;21198;-59
2021/03/18 08:18:24;;;;;;;3.55;2.60;;;;;;;22.81;41.91;100186.66;1682543;84;21271;-58
2021/03/18 08:20:57;;;;;;;3.12;2.50;;;;;;;22.82;41.92;100186.90;1681197;85;21267;-59
2021/03/18 08:23:31;;;;;;;3.30;2.22;;;;;;;22.83;41.93;100189.30;1681764;84;21749;-58
2021/03/18 08:26:08;;;;;;;4.47;2.47;;;;;;;22.82;41.92;100189.67;1682165;84;21262;-59
2021/03/18 08:28:48;;;;;;;4.05;2.40;;;;;;;22.79;41.94;100189.77;1681081;85;21232;-57
2021/03/18 08:31:18;;;;;;;4.15;2.72;;;;;;;22.77;41.95;100193.48;1685878;83;21160;-57
2021/03/18 08:33:53;;;;;;;3.12;2.33;;;;;;;22.78;42.01;100194.30;1682471;83;21156;-57
2021/03/18 08:36:32;;;;;;;3.25;2.25;;;;;;;22.79;42.01;100195.31;1684725;83;22384;-57
2021/03/18 08:39:11;;;;;;;3.02;2.42;;;;;;;22.79;42.01;100191.16;1684809;83;21217;-57
2021/03/18 08:41:45;;;;;;;3.08;2.22;;;;;;;22.78;41.99;100192.34;1681781;83;21270;-57
2021/03/18 08:44:23;;;;;;;3.52;2.37;;;;;;;22.75;42.00;100194.39;1681460;83;21159;-57
2021/03/18 08:47:05;;;;;;;3.37;2.25;;;;;;;22.73;42.02;100194.77;1686355;83;21174;-58
2021/03/18 08:49:42;;;;;;;2.87;2.27;;;;;;;22.74;42.07;100200.52;1686163;83;21244;-58
2021/03/18 08:52:19;;;;;;;3.65;2.25;;;;;;;22.76;42.04;100200.99;1680383;83;21242;-58
2021/03/18 08:54:51;;;;;;;4.08;2.20;;;;;;;22.76;42.03;100207.11;1681522;83;21157;-58
2021/03/18 08:57:23;;;;;;;2.87;1.90;;;;;;;22.74;42.03;100203.29;1683074;83;21155;-58
2021/03/18 08:59:56;;;;;;;2.95;2.50;;;;;;;22.72;42.06;100211.16;1683704;83;21225;-57
2021/03/18 09:02:31;;;;;;;3.58;2.52;;;;;;;22.71;42.06;100214.27;1689227;83;21385;-58
2021/03/18 09:04:58;;;;;;;2.98;2.27;;;;;;;22.71;42.06;100219.24;1688666;83;21230;-57
2021/03/18 09:07:28;;;;;;;2.52;1.98;;;;;;;22.73;42.07;100215.56;1686307;83;21189;-57
2021/03/18 09:10:18;;;;;;;3.30;2.17;;;;;;;22.72;42.03;100220.87;1686473;83;21293;-57
2021/03/18 09:12:55;;;;;;;2.35;2.10;;;;;;;22.71;42.03;100222.59;1681095;83;22349;-57
2021/03/18 09:15:32;;;;;;;3.25;1.80;;;;;;;22.67;42.04;100218.86;1690519;83;21205;-58
2021/03/18 09:18:12;;;;;;;3.70;2.08;;;;;;;22.67;42.06;100224.41;1677503;84;21322;-57
2021/03/18 09:20:39;;;;;;;2.92;2.20;;;;;;;22.69;41.85;100232.66;1678455;84;21243;-57
2021/03/18 09:23:14;;;;;;;3.05;2.10;;;;;;;22.69;41.85;100232.66;1677887;84;21490;-57
2021/03/18 09:25:42;;;;;;;3.05;2.10;;;;;;;22.69;42.01;100238.78;1728771;81;21737;-57
2021/03/18 09:28:09;;;;;;;2.60;1.77;;;;;;;22.66;42.01;100231.91;1731813;81;21529;-57
2021/03/18 09:30:39;;;;;;;3.00;1.80;;;;;;;22.65;42.05;100238.63;1722612;81;21180;-58
2021/03/18 09:33:23;;;;;;;2.83;2.20;;;;;;;22.66;42.05;100238.84;1734678;81;21211;-57
2021/03/18 09:35:56;;;;;;;3.20;2.08;;;;;;;22.71;42.02;100242.00;1730605;81;21208;-56
2021/03/18 09:38:27;;;;;;;3.05;2.12;;;;;;;22.71;41.99;100244.20;1730365;81;21231;-57
2021/03/18 09:40:54;;;;;;;2.60;2.00;;;;;;;22.70;41.96;100244.56;1732107;81;21200;-57
2021/03/18 09:43:22;;;;;;;5.60;2.22;;;;;;;22.66;41.97;100241.61;1726754;81;21204;-57
2021/03/18 09:46:03;;;;;;;3.72;2.83;;;;;;;22.66;41.99;100242.22;1732114;81;21257;-58
2021/03/18 09:48:36;;;;;;;2.83;1.92;;;;;;;22.67;42.00;100244.63;1730724;81;21077;-57
2021/03/18 09:51:18;;;;;;;3.08;2.20;;;;;;;22.71;41.99;100250.31;1732211;81;21596;-57
2021/03/18 09:53:57;;;;;;;2.37;1.80;;;;;;;22.73;41.95;100256.34;1733716;81;21167;-57
2021/03/18 09:56:25;;;;;;;2.60;2.15;;;;;;;22.71;41.90;100253.09;1730672;81;21247;-57
2021/03/18 09:58:52;;;;;;;3.00;2.27;;;;;;;22.67;41.91;100264.04;1728271;81;21236;-58
2021/03/18 10:01:23;;;;;;;4.60;2.70;;;;;;;22.66;41.93;100262.41;1726858;81;21172;-59
2021/03/18 10:04:01;;;;;;;3.85;2.40;;;;;;;22.67;41.96;100259.88;1732023;81;21232;-57
2021/03/18 10:06:32;;;;;;;2.98;2.12;;;;;;;22.68;41.93;100264.85;1732305;81;21576;-58
2021/03/18 10:09:19;;;;;;;2.92;2.05;;;;;;;22.65;41.91;100266.36;1728406;81;21248;-58
2021/03/18 10:11:58;;;;;;;2.45;2.02;;;;;;;22.63;41.92;100262.30;1731761;81;21160;-58
2021/03/18 10:14:44;;;;;;;2.52;1.70;;;;;;;22.59;41.92;100264.14;1734277;81;21588;-59
2021/03/18 10:17:14;;;;;;;5.87;2.83;;;;;;;22.58;41.95;100268.88;1723883;81;21145;-61
2021/03/18 10:20:08;;;;;;;6.60;4.80;;;;;;;22.60;41.98;100262.99;1716654;81;21210;-59
2021/03/18 10:22:39;;;;;;;9.08;5.55;;;;;;;22.54;41.75;100268.52;1729374;81;21674;-57
2021/03/18 10:25:13;;;;;;;11.50;6.03;;;;;;;21.73;40.06;100274.06;1725440;81;21545;-58
2021/03/18 10:27:48;;;;;;;8.88;5.67;;;;;;;20.97;39.62;100274.20;1722863;81;21098;-52
2021/03/18 10:30:22;;;;;;;7.20;6.10;;;;;;;20.41;39.50;100270.45;1726807;81;21082;-58
2021/03/18 10:33:05;;;;;;;8.75;5.62;;;;;;;20.15;39.92;100275.99;1721744;81;21157;-59
2021/03/18 10:35:41;;;;;;;10.30;5.10;;;;;;;20.23;40.25;100275.73;1724539;81;21104;-59
2021/03/18 10:38:10;;;;;;;8.43;5.10;;;;;;;20.37;40.10;100279.12;1728011;81;21623;-48
2021/03/18 10:40:42;;;;;;;8.85;4.42;;;;;;;20.54;40.09;100274.15;1723664;81;21192;-49
2021/03/18 10:43:27;;;;;;;8.55;4.17;;;;;;;20.70;40.27;100272.47;1724153;81;21141;-47
2021/03/18 10:46:04;;;;;;;6.10;3.70;;;;;;;20.82;40.36;100267.05;1718661;81;21283;-47
2021/03/18 10:48:35;;;;;;;6.37;3.30;;;;;;;20.92;40.44;100271.62;1725592;81;21524;-47
2021/03/18 10:51:12;;;;;;;4.25;3.35;;;;;;;21.01;40.51;100263.28;1719882;81;21181;-47
2021/03/18 10:53:41;;;;;;;4.75;3.50;;;;;;;21.07;40.63;100265.30;1717985;81;21189;-49
2021/03/18 10:56:11;;;;;;;4.75;3.37;;;;;;;21.16;40.77;100273.82;1721503;81;21188;-49
2021/03/18 10:58:39;;;;;;;4.20;3.25;;;;;;;21.27;40.89;100270.90;1726638;81;21401;-46
2021/03/18 11:01:10;;;;;;;4.33;3.33;;;;;;;21.38;41.00;100268.57;1722131;81;21615;-47
2021/03/18 11:03:40;;;;;;;4.37;3.20;;;;;;;21.46;41.09;100268.27;1723098;81;21724;-48
2021/03/18 11:06:18;;;;;;;5.22;3.12;;;;;;;21.50;41.17;100264.49;1716982;81;21196;-50
2021/03/18 11:08:50;;;;;;;4.25;3.35;;;;;;;21.53;41.26;100269.34;1718980;81;21585;-46
2021/03/18 11:11:27;;;;;;;5.22;2.87;;;;;;;21.54;41.37;100265.44;1718375;81;21436;-49
2021/03/18 11:14:07;;;;;;;4.00;2.85;;;;;;;21.56;41.50;100263.70;1715735;81;21214;-46
2021/03/18 11:16:34;;;;;;;3.92;2.85;;;;;;;21.62;41.63;100263.17;1722050;81;21567;-47
2021/03/18 11:19:03;;;;;;;3.92;3.42;;;;;;;21.69;41.72;100266.77;1722301;81;21599;-49
2021/03/18 11:21:40;;;;;;;4.03;2.85;;;;;;;21.74;41.82;100263.81;1722090;81;21163;-48
2021/03/18 11:24:15;;;;;;;5.62;3.02;;;;;;;21.77;41.90;100261.73;1722641;81;21224;-46
2021/03/18 11:26:52;;;;;;;4.20;2.50;;;;;;;21.80;42.00;100267.44;1716824;81;21265;-48
2021/03/18 11:29:23;;;;;;;3.62;2.83;;;;;;;21.81;42.13;100269.63;1718126;81;21758;-49
2021/03/18 11:31:52;;;;;;;;;;;;;;;21.83;42.26;100257.63;1720225;81;22299;-47
2021/03/18 11:34:23;;;;;;;6.03;3.37;;;;;;;21.88;42.36;100261.58;1722453;81;20337;-47
2021/03/18 11:36:52;;;;;;;4.00;2.77;;;;;;;21.92;42.38;100251.48;1725625;81;21222;-46
2021/03/18 11:39:20;;;;;;;4.30;2.90;;;;;;;21.97;42.44;100254.04;1705108;82;21687;-46
2021/03/18 11:41:47;;;;;;;3.67;2.87;;;;;;;21.99;42.51;100251.73;1718188;81;21224;-47
2021/03/18 11:44:14;;;;;;;4.55;3.12;;;;;;;22.01;42.59;100245.86;1722215;81;21514;-47
2021/03/18 11:46:41;;;;;;;4.70;3.00;;;;;;;22.01;42.69;100245.28;1719772;81;21178;-46
2021/03/18 11:49:08;;;;;;;4.40;3.20;;;;;;;22.03;42.79;100249.89;1718841;81;22189;-47
2021/03/18 11:51:34;;;;;;;3.27;2.62;;;;;;;22.08;42.91;100248.30;1722913;81;21691;-46